Time;durP1;ratioP1;P1;durP2;ratioP2;P2;SDS_P1;SDS_P2;PMS_P1;PMS_P2;Temp;Humidity;BMP_temperature;BMP_pressure;BME280_temperature;BME280_humidity;BME280_pressure;Samples;Min_cycle;Max_cycle;Signal;HPM_P1;HPM_P2
2022/05/03 05:53:38;;;;;;;;;;;;;;;15.87;63.93;96660.59;4265939;27;10165;-74
2022/05/03 05:55:42;;;;;;;;;;;;;;;16.16;63.38;96657.00;4265558;27;5597;-74
2022/05/03 05:57:44;;;;;;;;;;;;;;;16.43;62.75;96659.22;4266559;27;5625;-73
2022/05/03 05:59:46;;;;;;;;;;;;;;;16.69;62.39;96657.94;4265085;27;5685;-74
2022/05/03 06:01:51;;;;;;;;;;;;;;;16.90;61.92;96653.84;4265437;27;5586;-74
2022/05/03 06:03:53;;;;;;;;;;;;;;;17.07;61.59;96663.53;4266780;27;5692;-74
2022/05/03 06:05:56;;;;;;;;;;;;;;;17.24;61.03;96666.28;4266583;27;5620;-75
2022/05/03 06:07:59;;;;;;;;;;;;;;;17.38;60.89;96664.13;4266536;27;6309;-74
2022/05/03 06:10:00;;;;;;;;;;;;;;;17.46;60.84;96669.91;4266598;27;5624;-75
2022/05/03 06:12:02;;;;;;;;;;;;;;;17.51;60.65;96666.50;4266602;27;5621;-75
2022/05/03 06:14:05;;;;;;;;;;;;;;;17.57;60.64;96668.22;4265204;27;5630;-74
2022/05/03 06:16:10;;;;;;;;;;;;;;;17.65;60.43;96667.00;4266690;27;5652;-75
2022/05/03 06:18:12;;;;;;;;;;;;;;;17.72;60.53;96675.72;4266296;27;5620;-75
2022/05/03 06:20:14;;;;;;;;;;;;;;;17.77;60.19;96669.63;4266418;27;5729;-74
2022/05/03 06:22:15;;;;;;;;;;;;;;;17.81;59.93;96671.59;4266285;27;5723;-75
2022/05/03 06:24:17;;;;;;;;;;;;;;;17.88;59.77;96674.91;4266497;27;5644;-75
2022/05/03 06:26:19;;;;;;;;;;;;;;;17.94;59.68;96681.97;4266219;27;5620;-75
2022/05/03 06:28:20;;;;;;;;;;;;;;;17.99;59.42;96678.56;4265770;27;5628;-75
2022/05/03 06:30:22;;;;;;;;;;;;;;;18.02;59.29;96680.78;4265708;27;5629;-74
2022/05/03 06:32:24;;;;;;;;;;;;;;;18.04;59.01;96679.47;4265836;27;5063;-74
2022/05/03 06:34:26;;;;;;;;;;;;;;;18.04;59.01;96671.47;4266173;27;5707;-74
2022/05/03 06:36:27;;;;;;;;;;;;;;;18.04;58.74;96676.81;4265618;27;7667;-74
2022/05/03 06:38:29;;;;;;;;;;;;;;;18.05;58.42;96682.97;4265516;27;5621;-74
2022/05/03 06:40:33;;;;;;;;;;;;;;;18.04;58.21;96674.13;4265776;27;5812;-75
2022/05/03 06:42:37;;;;;;;;;;;;;;;18.00;58.11;96675.66;4265727;27;5620;-74
2022/05/03 06:44:38;;;;;;;;;;;;;;;18.00;57.61;96675.66;4265426;27;5632;-74
2022/05/03 06:46:40;;;;;;;;;;;;;;;17.99;57.36;96679.38;4265584;27;5628;-74
2022/05/03 06:48:42;;;;;;;;;;;;;;;17.99;57.15;96676.72;4265621;27;5625;-74
2022/05/03 06:50:43;;;;;;;;;;;;;;;17.99;57.05;96682.06;4264219;27;5747;-75
2022/05/03 06:52:45;;;;;;;;;;;;;;;18.00;56.96;96675.66;4264560;27;5620;-74
2022/05/03 06:54:47;;;;;;;;;;;;;;;17.98;56.76;96676.94;4253412;27;5640;-74
2022/05/03 06:56:49;;;;;;;;;;;;;;;17.96;56.58;96684.41;4254008;27;5633;-75
2022/05/03 06:58:50;;;;;;;;;;;;;;;17.93;56.60;96680.38;4252414;27;5681;-74
2022/05/03 07:00:52;;;;;;;;;;;;;;;17.92;56.34;96678.75;4253882;27;5839;-75
2022/05/03 07:02:53;;;;;;;;;;;;;;;17.93;56.11;96682.22;4253806;27;5712;-75
2022/05/03 07:04:56;;;;;;;;;;;;;;;17.95;55.96;96685.47;4253975;27;5083;-74
2022/05/03 07:06:58;;;;;;;;;;;;;;;17.96;55.82;96692.44;4254149;27;5071;-74
2022/05/03 07:09:00;;;;;;;;;;;;;;;17.98;55.66;96691.13;4253794;27;5636;-76
2022/05/03 07:11:02;;;;;;;;;;;;;;;18.00;55.49;96690.88;4253931;27;5633;-75
2022/05/03 07:13:04;;;;;;;;;;;;;;;17.98;55.38;96690.31;4252026;27;5630;-75
2022/05/03 07:15:08;;;;;;;;;;;;;;;17.97;55.25;96692.19;4235392;27;5711;-75
2022/05/03 07:22:45;;;;;;;;;;;;;;;17.95;55.26;96688.94;4253771;27;5659;-74
2022/05/03 07:24:14;;;;;;;;;;;;;;;17.82;55.27;96694.63;4253670;27;5712;-74
2022/05/03 07:26:16;;;;;;;;;;;;;;;17.85;54.97;96693.31;4253398;27;5726;-75
2022/05/03 07:28:18;;;;;;;;;;;;;;;17.85;55.00;96698.66;4253146;27;5629;-75
2022/05/03 07:30:20;;;;;;;;;;;;;;;17.83;55.12;96693.56;4253720;27;6325;-75
2022/05/03 07:32:22;;;;;;;;;;;;;;;17.81;55.08;96708.22;4253504;27;5629;-75
2022/05/03 07:34:23;;;;;;;;;;;;;;;17.77;55.15;96705.22;4253184;27;5814;-75
2022/05/03 07:36:29;;;;;;;;;;;;;;;17.73;55.10;96701.41;4251991;27;6226;-75
2022/05/03 07:38:30;;;;;;;;;;;;;;;17.74;55.31;96706.50;4253504;27;5619;-75
2022/05/03 07:40:32;;;;;;;;;;;;;;;17.76;55.26;96700.91;4253400;27;5628;-74
2022/05/03 07:42:34;;;;;;;;;;;;;;;17.78;55.10;96693.50;4253110;27;5438;-75
2022/05/03 07:44:36;;;;;;;;;;;;;;;17.76;55.05;96708.94;4252836;27;7695;-75
2022/05/03 07:46:37;;;;;;;;;;;;;;;17.73;54.87;96706.75;4253225;27;5726;-74
2022/05/03 07:48:39;;;;;;;;;;;;;;;17.73;54.91;96693.38;4253180;27;5612;-75
2022/05/03 07:50:41;;;;;;;;;;;;;;;17.73;54.80;96704.06;4253460;27;5632;-74
2022/05/03 07:52:42;;;;;;;;;;;;;;;17.76;54.59;96706.25;4251559;27;5087;-74
2022/05/03 07:54:44;;;;;;;;;;;;;;;17.74;54.50;96701.16;4252974;27;5720;-75
2022/05/03 07:56:46;;;;;;;;;;;;;;;17.75;54.28;96701.97;4235048;27;5710;-75
2022/05/03 07:58:48;;;;;;;;;;;;;;;17.77;54.03;96702.53;4251698;27;5594;-74
2022/05/03 08:00:49;;;;;;;;;;;;;;;17.82;53.89;96704.50;4251720;27;5613;-75
2022/05/03 08:02:51;;;;;;;;;;;;;;;17.82;53.90;96716.00;4253022;27;5628;-75
2022/05/03 08:04:54;;;;;;;;;;;;;;;17.81;53.70;96711.72;4251266;27;5884;-75
2022/05/03 08:06:56;;;;;;;;;;;;;;;17.81;53.82;96711.72;4251215;27;7655;-75
2022/05/03 08:08:58;;;;;;;;;;;;;;;17.85;53.72;96718.19;4251803;27;5661;-75
2022/05/03 08:10:59;;;;;;;;;;;;;;;17.88;53.71;96709.69;4252888;27;5621;-75
2022/05/03 08:13:01;;;;;;;;;;;;;;;17.88;53.60;96708.88;4252474;27;5624;-75
2022/05/03 08:15:04;;;;;;;;;;;;;;;17.91;53.58;96709.22;4252914;27;5513;-75
2022/05/03 08:17:06;;;;;;;;;;;;;;;17.96;53.62;96708.47;4252835;27;5708;-75
2022/05/03 08:19:08;;;;;;;;;;;;;;;18.00;53.68;96712.28;4253034;27;5628;-75
2022/05/03 08:21:11;;;;;;;;;;;;;;;18.03;53.62;96709.16;4252923;27;5624;-75
2022/05/03 08:23:13;;;;;;;;;;;;;;;18.04;53.63;96708.09;4252691;27;5613;-75
2022/05/03 08:25:15;;;;;;;;;;;;;;;18.07;53.50;96712.94;4251673;27;5653;-74
2022/05/03 08:27:16;;;;;;;;;;;;;;;18.11;53.81;96713.28;4252759;27;5703;-74
2022/05/03 08:29:19;;;;;;;;;;;;;;;18.11;53.50;96715.94;4252431;27;5711;-74
2022/05/03 08:31:20;;;;;;;;;;;;;;;18.07;53.34;96712.94;4252672;27;5676;-74
2022/05/03 08:33:22;;;;;;;;;;;;;;;18.10;53.34;96717.81;4252321;27;5625;-75
2022/05/03 08:35:24;;;;;;;;;;;;;;;18.13;53.28;96719.22;4241054;27;5107;-74
2022/05/03 08:42:06;;;;;;;;;;;;;;;18.17;53.03;96721.16;4235372;28;5760;-75
2022/05/03 08:44:09;;;;;;;;;;;;;;;18.20;53.07;96728.69;4235112;28;5658;-75
2022/05/03 08:46:11;;;;;;;;;;;;;;;18.22;53.11;96717.72;4235343;28;5658;-74
2022/05/03 08:48:16;;;;;;;;;;;;;;;18.25;53.06;96718.06;4235266;27;5646;-74
2022/05/03 08:50:22;;;;;;;;;;;;;;;18.24;52.92;96724.47;4234283;28;5668;-75
2022/05/03 08:52:28;;;;;;;;;;;;;;;18.25;52.78;96726.09;4234884;27;5646;-74
2022/05/03 08:54:31;;;;;;;;;;;;;;;18.28;52.82;96730.16;4241292;27;5613;-75
2022/05/03 08:56:33;;;;;;;;;;;;;;;18.31;52.57;96721.63;4251147;27;5659;-74
2022/05/03 08:58:35;;;;;;;;;;;;;;;18.35;52.57;96720.09;4252069;27;5728;-74
2022/05/03 09:00:37;;;;;;;;;;;;;;;18.40;52.33;96719.38;4252448;27;5652;-74
2022/05/03 09:02:54;;;;;;;;;;;;;;;18.42;52.47;96720.72;4252293;27;5643;-74
2022/05/03 09:04:56;;;;;;;;;;;;;;;18.45;52.24;96720.22;4252359;27;5722;-74
2022/05/03 09:07:19;;;;;;;;;;;;;;;18.44;52.18;96718.63;4252156;27;5636;-74
2022/05/03 09:09:21;;;;;;;;;;;;;;;18.44;52.12;96715.94;4251853;27;5640;-74
2022/05/03 09:11:23;;;;;;;;;;;;;;;18.47;52.02;96720.81;4252122;27;5700;-74
2022/05/03 09:13:28;;;;;;;;;;;;;;;18.53;52.15;96724.38;4251595;27;5710;-76
2022/05/03 09:15:32;;;;;;;;;;;;;;;18.51;51.80;96719.28;4234212;27;5812;-75
2022/05/03 09:17:36;;;;;;;;;;;;;;;18.49;51.90;96716.03;4252158;27;5616;-75
2022/05/03 09:19:38;;;;;;;;;;;;;;;18.48;51.88;96711.75;4251977;27;5625;-74
2022/05/03 09:24:03;;;;;;;;;;;;;;;18.50;51.86;96712.31;4252237;27;5628;-75
2022/05/03 09:26:16;;;;;;;;;;;;;;;18.51;51.74;96711.25;4252145;27;5632;-75
2022/05/03 09:28:22;;;;;;;;;;;;;;;18.54;51.62;96712.59;4252058;27;5918;-75
2022/05/03 09:30:24;;;;;;;;;;;;;;;18.53;51.57;96717.16;4252368;27;6316;-74
2022/05/03 09:32:47;;;;;;;;;;;;;;;18.53;51.64;96714.47;4252219;27;5759;-74
2022/05/03 09:34:49;;;;;;;;;;;;;;;18.55;51.61;96714.22;4251877;27;5609;-74
2022/05/03 09:36:55;;;;;;;;;;;;;;;18.53;51.69;96714.47;4250706;27;5582;-74
2022/05/03 09:39:07;;;;;;;;;;;;;;;18.55;51.47;96712.38;4251961;27;5639;-75
2022/05/03 09:41:17;;;;;;;;;;;;;;;18.54;51.54;96712.59;4252148;27;5714;-75
2022/05/03 09:43:18;;;;;;;;;;;;;;;18.56;51.39;96716.66;4251813;27;5794;-75
2022/05/03 09:45:25;;;;;;;;;;;;;;;18.59;51.35;96704.66;4251596;27;5636;-75
2022/05/03 09:47:30;;;;;;;;;;;;;;;18.62;51.54;96709.53;4250739;27;5765;-75
2022/05/03 09:49:37;;;;;;;;;;;;;;;18.61;51.18;96711.41;4251614;27;6454;-74
2022/05/03 09:51:39;;;;;;;;;;;;;;;18.65;51.22;96713.59;4251594;27;5648;-73
2022/05/03 09:53:41;;;;;;;;;;;;;;;18.69;51.22;96704.84;4250179;27;5594;-74
2022/05/03 09:55:45;;;;;;;;;;;;;;;18.74;51.05;96704.09;4251493;27;5621;-74
2022/05/03 09:57:47;;;;;;;;;;;;;;;18.78;51.00;96707.88;4251734;27;5628;-74
2022/05/03 09:59:50;;;;;;;;;;;;;;;18.81;51.15;96712.78;4251307;27;5621;-74
2022/05/03 10:01:53;;;;;;;;;;;;;;;18.82;51.14;96709.03;4251530;27;5807;-75
2022/05/03 10:03:56;;;;;;;;;;;;;;;18.86;51.25;96710.97;4251601;27;5645;-75
2022/05/03 10:05:58;;;;;;;;;;;;;;;18.84;50.94;96704.25;4250661;27;5582;-73
2022/05/03 10:08:00;;;;;;;;;;;;;;;18.82;50.84;96703.69;4251466;27;6293;-74
2022/05/03 10:10:09;;;;;;;;;;;;;;;18.84;50.83;96710.41;4251029;27;6293;-74
2022/05/03 10:12:12;;;;;;;;;;;;;;;18.85;50.65;96709.34;4215484;28;5524;-76
2022/05/03 10:14:14;;;;;;;;;;;;;;;18.87;50.53;96707.22;4246122;27;6398;-74
2022/05/03 10:21:11;;;;;;;;;;;;;;;18.89;50.85;96701.63;4249031;27;5767;-75
2022/05/03 10:23:24;;;;;;;;;;;;;;;18.90;50.82;96701.38;4250997;27;5669;-75
2022/05/03 10:25:56;;;;;;;;;;;;;;;18.88;51.04;96700.00;4251377;27;5755;-75
2022/05/03 10:27:59;;;;;;;;;;;;;;;18.90;51.08;96700.56;4244021;27;5704;-74
2022/05/03 10:30:16;;;;;;;;;;;;;;;18.94;51.02;96701.69;4254172;27;6341;-74
2022/05/03 10:32:18;;;;;;;;;;;;;;;18.96;51.10;96704.13;4254336;27;5611;-74
2022/05/03 10:34:42;;;;;;;;;;;;;;;18.98;51.03;96700.13;4254186;27;5629;-74
2022/05/03 10:36:43;;;;;;;;;;;;;;;19.01;50.91;96696.13;4237282;27;5649;-74
2022/05/03 10:38:46;;;;;;;;;;;;;;;19.04;50.75;96691.13;4237169;27;5650;-75
2022/05/03 10:40:48;;;;;;;;;;;;;;;19.07;50.45;96690.59;4236199;28;5589;-74
2022/05/03 10:43:25;;;;;;;;;;;;;;;19.08;50.54;96692.22;4246189;27;5106;-75
2022/05/03 10:45:27;;;;;;;;;;;;;;;19.07;50.44;96693.28;4214322;27;6452;-74
2022/05/03 10:47:51;;;;;;;;;;;;;;;19.07;50.54;96687.94;4237074;28;5645;-74
2022/05/03 10:50:15;;;;;;;;;;;;;;;19.13;50.46;96691.47;4250931;27;5579;-75
2022/05/03 10:52:19;;;;;;;;;;;;;;;19.16;50.48;96691.00;4254261;27;5594;-74
2022/05/03 10:54:21;;;;;;;;;;;;;;;19.19;50.49;96683.25;4252059;27;5703;-74
2022/05/03 10:56:23;;;;;;;;;;;;;;;19.22;50.58;96673.09;4235907;28;5687;-74
2022/05/03 10:58:34;;;;;;;;;;;;;;;19.25;50.17;96680.63;4236921;27;6303;-74
2022/05/03 11:01:00;;;;;;;;;;;;;;;19.24;50.00;96674.44;4236569;27;5733;-74
2022/05/03 11:03:21;;;;;;;;;;;;;;;19.27;50.00;96673.16;4242380;27;5696;-73
2022/05/03 11:05:23;;;;;;;;;;;;;;;19.30;49.57;96680.69;4241757;27;5704;-73
2022/05/03 11:07:25;;;;;;;;;;;;;;;19.32;49.64;96686.59;4249053;27;5636;-74
2022/05/03 11:09:31;;;;;;;;;;;;;;;19.33;49.55;96677.50;4246658;27;5804;-74
2022/05/03 11:11:42;;;;;;;;;;;;;;;19.36;49.73;96668.94;4251969;27;5641;-74
2022/05/03 11:13:44;;;;;;;;;;;;;;;19.37;49.51;96668.72;4247384;27;5723;-74
2022/05/03 11:16:18;;;;;;;;;;;;;;;19.42;49.44;96671.44;4253625;27;6412;-73
2022/05/03 11:18:20;;;;;;;;;;;;;;;19.41;49.53;96660.97;4253605;27;5621;-73
2022/05/03 11:20:22;;;;;;;;;;;;;;;19.43;49.19;96659.66;4253733;27;6001;-74
2022/05/03 11:22:28;;;;;;;;;;;;;;;19.45;49.25;96646.00;4247803;27;5655;-74
2022/05/03 11:24:36;;;;;;;;;;;;;;;19.47;49.40;96651.91;4250580;27;6297;-75
2022/05/03 11:26:39;;;;;;;;;;;;;;;19.48;49.18;96656.25;4249938;27;5599;-74
2022/05/03 11:28:40;;;;;;;;;;;;;;;19.48;49.23;96650.88;4249599;27;5655;-74
2022/05/03 11:30:42;;;;;;;;;;;;;;;19.47;49.07;96657.28;4240196;27;5761;-73
2022/05/03 11:32:44;;;;;;;;;;;;;;;19.44;49.32;96650.56;4252449;27;5590;-74
2022/05/03 11:34:45;;;;;;;;;;;;;;;19.43;48.81;96650.81;4251110;27;5697;-73
2022/05/03 11:36:50;;;;;;;;;;;;;;;19.46;48.72;96655.66;4249707;27;5692;-75
2022/05/03 11:38:53;;;;;;;;;;;;;;;19.48;48.45;96651.69;4245444;27;5628;-74
2022/05/03 11:40:55;;;;;;;;;;;;;;;19.50;48.33;96651.44;4241510;27;5716;-73
2022/05/03 11:42:56;;;;;;;;;;;;;;;19.54;48.06;96657.88;4246012;27;5758;-73
2022/05/03 11:45:00;;;;;;;;;;;;;;;19.58;47.95;96655.53;4251171;27;6403;-74
2022/05/03 11:47:03;;;;;;;;;;;;;;;19.58;47.86;96656.34;4236452;27;5642;-75
2022/05/03 11:49:06;;;;;;;;;;;;;;;19.60;47.66;96659.59;4243613;27;5613;-74
2022/05/03 11:55:59;;;;;;;;;;;;;;;19.77;47.08;96656.78;4235921;27;5657;-74
2022/05/03 11:58:01;;;;;;;;;;;;;;;19.83;47.12;96654.97;4245324;27;5679;-74
2022/05/03 12:00:06;;;;;;;;;;;;;;;19.84;46.82;96646.69;4252454;27;5762;-74
2022/05/03 12:02:28;;;;;;;;;;;;;;;19.83;46.98;96649.63;4252873;27;5624;-74
2022/05/03 12:04:30;;;;;;;;;;;;;;;19.83;46.76;96650.44;4251657;27;5601;-74
2022/05/03 12:06:43;;;;;;;;;;;;;;;19.86;46.76;96643.72;4245130;27;5650;-74
2022/05/03 12:08:47;;;;;;;;;;;;;;;19.90;46.86;96650.19;4253064;27;5639;-74
2022/05/03 12:10:49;;;;;;;;;;;;;;;19.91;46.60;96646.44;4242278;27;5633;-76
2022/05/03 12:13:13;;;;;;;;;;;;;;;19.92;46.31;96648.88;4244492;27;5870;-75
2022/05/03 12:15:15;;;;;;;;;;;;;;;19.95;46.33;96644.88;4237445;27;5660;-75
2022/05/03 12:17:18;;;;;;;;;;;;;;;19.98;46.38;96641.69;4248105;27;5815;-75
2022/05/03 12:19:20;;;;;;;;;;;;;;;20.01;45.93;96636.59;4239191;27;5645;-75
2022/05/03 12:21:29;;;;;;;;;;;;;;;20.03;46.04;96634.47;4247794;27;5633;-75
2022/05/03 12:23:38;;;;;;;;;;;;;;;20.09;45.85;96632.66;4252138;27;5740;-74
2022/05/03 12:25:41;;;;;;;;;;;;;;;20.12;45.58;96645.53;4250335;27;5078;-75
2022/05/03 12:27:49;;;;;;;;;;;;;;;20.18;45.34;96641.84;4250967;27;5652;-74
2022/05/03 12:29:50;;;;;;;;;;;;;;;20.24;45.26;96646.16;4245538;27;5633;-74
2022/05/03 12:31:53;;;;;;;;;;;;;;;20.34;45.14;96632.81;4250995;27;5849;-75
2022/05/03 12:33:56;;;;;;;;;;;;;;;20.43;44.66;96632.38;4233710;27;6289;-75
2022/05/03 12:36:05;;;;;;;;;;;;;;;20.49;44.53;96642.88;4246141;27;5650;-75
2022/05/03 12:38:08;;;;;;;;;;;;;;;20.53;44.25;96640.50;4252266;27;5688;-75
2022/05/03 12:40:10;;;;;;;;;;;;;;;20.59;44.34;96636.75;4252320;27;5629;-74
2022/05/03 12:42:15;;;;;;;;;;;;;;;20.62;43.93;96636.25;4250465;27;5638;-75
2022/05/03 12:44:19;;;;;;;;;;;;;;;20.70;43.55;96641.09;4251493;27;5632;-75
2022/05/03 12:46:27;;;;;;;;;;;;;;;20.79;43.57;96641.41;4243394;27;5700;-75
2022/05/03 12:48:31;;;;;;;;;;;;;;;20.83;43.16;96648.69;4246669;27;6355;-75
2022/05/03 12:50:33;;;;;;;;;;;;;;;20.89;42.77;96641.47;4234144;28;5654;-76
2022/05/03 12:52:35;;;;;;;;;;;;;;;20.94;42.42;96641.47;4234311;28;6415;-75
2022/05/03 12:54:44;;;;;;;;;;;;;;;20.98;41.71;96645.28;4241769;27;5637;-75
2022/05/03 12:59:07;;;;;;;;;;;;;;;21.13;41.27;96645.31;4235257;28;5817;-75
2022/05/03 13:01:11;;;;;;;;;;;;;;;21.18;41.17;96639.97;4250632;27;5696;-75
2022/05/03 13:03:13;;;;;;;;;;;;;;;21.21;40.54;96639.44;4246888;27;5632;-75
2022/05/03 13:05:14;;;;;;;;;;;;;;;21.26;40.48;96643.25;4251137;27;6263;-75
2022/05/03 13:07:16;;;;;;;;;;;;;;;21.29;40.66;96646.19;4251096;27;5719;-75
2022/05/03 13:09:20;;;;;;;;;;;;;;;21.31;40.19;96636.00;4252220;27;6394;-75
2022/05/03 13:11:27;;;;;;;;;;;;;;;21.31;39.85;96637.91;4251048;27;5762;-75
2022/05/03 13:13:29;;;;;;;;;;;;;;;21.30;39.71;96628.22;4248761;27;6386;-75
2022/05/03 13:15:31;;;;;;;;;;;;;;;21.30;39.47;96628.22;4252466;27;5640;-75
2022/05/03 13:17:33;;;;;;;;;;;;;;;21.32;39.46;96626.88;4240011;27;5668;-75
2022/05/03 13:19:35;;;;;;;;;;;;;;;21.32;39.21;96618.81;4234903;28;5721;-75
2022/05/03 13:21:39;;;;;;;;;;;;;;;21.35;39.28;96623.66;4243070;27;5726;-75
2022/05/03 13:23:41;;;;;;;;;;;;;;;21.34;38.97;96619.34;4252229;27;5645;-75
2022/05/03 13:25:44;;;;;;;;;;;;;;;21.35;38.85;96620.16;4252074;27;5617;-75
2022/05/03 13:27:46;;;;;;;;;;;;;;;21.38;38.84;96617.72;4250508;27;5719;-75
2022/05/03 13:29:48;;;;;;;;;;;;;;;21.40;38.73;96623.63;4251365;27;5692;-75
2022/05/03 13:31:51;;;;;;;;;;;;;;;21.40;38.65;96620.94;4243588;27;5737;-75
2022/05/03 13:33:52;;;;;;;;;;;;;;;21.41;38.77;96627.16;4234656;27;5657;-75
2022/05/03 13:40:36;;;;;;;;;;;;;;;21.38;38.15;96612.34;4252101;27;6318;-76
2022/05/03 13:42:38;;;;;;;;;;;;;;;21.32;38.14;96616.13;4251816;27;5632;-75
2022/05/03 13:44:41;;;;;;;;;;;;;;;21.31;38.00;96616.38;4251563;27;5823;-75
2022/05/03 13:46:43;;;;;;;;;;;;;;;21.30;38.21;96610.19;4251741;27;6345;-75
2022/05/03 13:48:45;;;;;;;;;;;;;;;21.31;38.11;96617.19;4251690;27;5617;-76
2022/05/03 13:50:48;;;;;;;;;;;;;;;21.32;38.08;96613.44;4250634;27;5775;-76
2022/05/03 13:52:50;;;;;;;;;;;;;;;21.32;38.28;96610.75;4251398;27;5652;-75
2022/05/03 13:54:51;;;;;;;;;;;;;;;21.33;38.09;96617.72;4250951;27;5630;-75
2022/05/03 13:56:53;;;;;;;;;;;;;;;21.36;38.57;96614.50;4251680;27;5632;-75
2022/05/03 13:58:55;;;;;;;;;;;;;;;21.42;38.26;96608.06;4251375;27;5641;-75
2022/05/03 14:01:00;;;;;;;;;;;;;;;21.43;38.37;96616.94;4251206;27;5648;-75
2022/05/03 14:03:04;;;;;;;;;;;;;;;21.46;38.61;96609.16;4250553;27;5586;-75
2022/05/03 14:05:06;;;;;;;;;;;;;;;21.49;38.82;96608.59;4255042;27;6457;-75
2022/05/03 14:07:12;;;;;;;;;;;;;;;21.53;38.70;96608.09;4254922;27;5627;-75
2022/05/03 14:09:14;;;;;;;;;;;;;;;21.55;38.77;96612.13;4255140;27;5684;-75
2022/05/03 14:11:17;;;;;;;;;;;;;;;21.58;38.73;96610.78;4255346;27;5790;-75
2022/05/03 14:13:18;;;;;;;;;;;;;;;21.57;38.70;96609.97;4254236;27;5727;-75
2022/05/03 14:15:20;;;;;;;;;;;;;;;21.57;38.48;96609.97;4253343;27;5582;-76
2022/05/03 14:17:22;;;;;;;;;;;;;;;21.57;38.58;96609.97;4255245;27;5621;-75
2022/05/03 14:19:24;;;;;;;;;;;;;;;21.61;38.51;96607.53;4254768;27;5632;-75
2022/05/03 14:21:26;;;;;;;;;;;;;;;21.63;38.56;96608.06;4255033;27;5724;-75
2022/05/03 14:23:34;;;;;;;;;;;;;;;21.66;38.65;96596.81;4252059;27;5628;-77
2022/05/03 14:25:36;;;;;;;;;;;;;;;21.71;38.41;96599.47;4245549;27;5820;-75
2022/05/03 14:27:38;;;;;;;;;;;;;;;21.75;38.55;96590.63;4249694;27;5746;-76
2022/05/03 14:29:40;;;;;;;;;;;;;;;21.75;38.43;96589.81;4245828;27;5619;-76
2022/05/03 14:31:43;;;;;;;;;;;;;;;21.75;38.68;96592.50;4253234;27;5637;-76
2022/05/03 14:33:45;;;;;;;;;;;;;;;21.74;38.45;96594.34;4241181;27;5658;-76
2022/05/03 14:36:05;;;;;;;;;;;;;;;21.70;38.38;96587.91;4253550;27;6321;-76
2022/05/03 14:38:07;;;;;;;;;;;;;;;21.66;38.38;96592.22;4238189;27;6316;-76
2022/05/03 14:40:11;;;;;;;;;;;;;;;21.67;38.49;96584.97;4251087;27;5766;-76
2022/05/03 14:42:13;;;;;;;;;;;;;;;21.66;38.35;96584.16;4254489;27;5923;-76
2022/05/03 14:44:15;;;;;;;;;;;;;;;21.68;38.37;96589.25;4254242;27;5632;-76
2022/05/03 14:46:17;;;;;;;;;;;;;;;21.68;38.35;96584.69;4249615;27;5722;-75
2022/05/03 14:48:18;;;;;;;;;;;;;;;21.72;37.87;96590.34;4249203;27;6084;-76
2022/05/03 14:50:20;;;;;;;;;;;;;;;21.71;37.65;96584.16;4244726;27;5757;-75
2022/05/03 14:52:22;;;;;;;;;;;;;;;21.66;37.71;96580.66;4244281;27;5931;-75
2022/05/03 14:54:24;;;;;;;;;;;;;;;21.65;37.49;96590.63;4247099;27;5728;-75
2022/05/03 15:03:27;;;;;;;;;;;;;;;21.53;36.99;96602.72;4248902;27;5726;-75
2022/05/03 15:05:31;;;;;;;;;;;;;;;21.57;37.20;96601.91;4251297;27;5791;-75
2022/05/03 15:07:34;;;;;;;;;;;;;;;21.57;36.99;96599.22;4241439;27;5102;-75
2022/05/03 15:09:36;;;;;;;;;;;;;;;21.59;36.90;96602.44;4249061;27;5118;-75
2022/05/03 15:11:38;;;;;;;;;;;;;;;21.59;37.07;96607.00;4250932;27;5732;-75
2022/05/03 15:13:40;;;;;;;;;;;;;;;21.53;37.02;96608.09;4247550;27;5739;-75
2022/05/03 15:15:43;;;;;;;;;;;;;;;21.51;37.08;96609.13;4248244;27;5845;-75
2022/05/03 15:17:46;;;;;;;;;;;;;;;21.50;37.32;96610.22;4250435;27;5727;-75
2022/05/03 15:19:47;;;;;;;;;;;;;;;21.56;37.03;96608.34;4243894;27;6452;-75
2022/05/03 15:21:49;;;;;;;;;;;;;;;21.59;37.29;96615.88;4250943;27;5744;-74
2022/05/03 15:26:12;;;;;;;;;;;;;;;21.58;36.93;96621.53;4246459;27;5792;-74
2022/05/03 15:28:15;;;;;;;;;;;;;;;21.58;36.76;96640.34;4237233;27;5838;-75
2022/05/03 15:30:17;;;;;;;;;;;;;;;21.56;37.00;96624.50;4244330;27;5739;-75
2022/05/03 15:32:27;;;;;;;;;;;;;;;21.51;37.68;96624.47;4243109;27;5831;-74
2022/05/03 15:34:30;;;;;;;;;;;;;;;21.45;37.80;96629.03;4247795;27;5294;-75
2022/05/03 15:36:31;;;;;;;;;;;;;;;21.34;38.23;96623.91;4244465;27;6519;-74
2022/05/03 15:38:33;;;;;;;;;;;;;;;21.27;38.88;96626.84;4249024;27;5715;-75
2022/05/03 15:40:35;;;;;;;;;;;;;;;21.25;39.33;96633.53;4249196;27;5782;-75
2022/05/03 15:42:39;;;;;;;;;;;;;;;21.22;39.48;96624.94;4249914;27;5724;-74
2022/05/03 15:44:41;;;;;;;;;;;;;;;21.18;39.39;96628.41;4246796;27;5745;-75
2022/05/03 15:46:45;;;;;;;;;;;;;;;21.11;40.01;96628.66;4239046;27;5704;-75
2022/05/03 15:48:46;;;;;;;;;;;;;;;21.11;39.94;96628.66;4248347;27;5728;-75
2022/05/03 15:50:48;;;;;;;;;;;;;;;21.08;40.25;96634.56;4246972;27;5722;-75
2022/05/03 15:52:51;;;;;;;;;;;;;;;21.09;40.51;96632.69;4234981;27;5758;-76
2022/05/03 15:54:56;;;;;;;;;;;;;;;21.07;40.61;96630.28;4248739;27;5724;-73
2022/05/03 15:56:57;;;;;;;;;;;;;;;21.03;40.90;96629.16;4241585;27;5780;-73
2022/05/03 15:58:59;;;;;;;;;;;;;;;21.02;41.12;96634.81;4247351;27;5732;-73
2022/05/03 16:01:05;;;;;;;;;;;;;;;20.92;41.34;96636.38;4240678;27;5789;-73
2022/05/03 16:03:07;;;;;;;;;;;;;;;20.89;41.67;96646.84;4241924;27;5739;-73
2022/05/03 16:05:20;;;;;;;;;;;;;;;20.83;42.13;96646.00;4245858;27;5753;-73
2022/05/03 16:07:21;;;;;;;;;;;;;;;20.82;42.00;96646.25;4231375;27;5711;-73
2022/05/03 16:09:23;;;;;;;;;;;;;;;20.77;42.38;96647.06;4238228;27;5107;-73
2022/05/03 16:11:25;;;;;;;;;;;;;;;20.66;42.68;96648.06;4234069;27;5692;-74
2022/05/03 16:13:26;;;;;;;;;;;;;;;20.60;42.96;96647.22;4243374;27;5895;-73
2022/05/03 16:15:28;;;;;;;;;;;;;;;20.56;43.53;96654.19;4245455;27;5731;-73
2022/05/03 16:17:31;;;;;;;;;;;;;;;20.48;43.56;96646.63;4248397;27;5677;-73
2022/05/03 16:19:34;;;;;;;;;;;;;;;20.41;44.17;96650.59;4239402;27;6381;-73
2022/05/03 16:21:36;;;;;;;;;;;;;;;20.38;44.29;96657.25;4249048;27;5727;-73
2022/05/03 16:23:37;;;;;;;;;;;;;;;20.34;44.49;96654.28;4239793;27;5763;-73
2022/05/03 16:25:40;;;;;;;;;;;;;;;20.28;44.85;96660.72;4248683;27;6501;-73
2022/05/03 16:27:42;;;;;;;;;;;;;;;20.24;44.71;96664.97;4260023;27;5710;-74
2022/05/03 16:29:48;;;;;;;;;;;;;;;20.21;45.20;96662.78;4235291;27;6449;-73
2022/05/03 16:31:50;;;;;;;;;;;;;;;20.21;45.05;96668.16;4245520;27;6408;-72
2022/05/03 16:33:55;;;;;;;;;;;;;;;20.19;45.33;96662.25;4248378;27;5765;-73
2022/05/03 16:42:08;;;;;;;;;;;;;;;20.14;45.30;96664.88;4242976;27;5950;-73
2022/05/03 16:43:02;;;;;;;;;;;;;;;20.06;45.85;96660.81;4240728;27;6416;-73
2022/05/03 16:45:05;;;;;;;;;;;;;;;20.01;45.81;96662.63;4249194;27;5735;-73
2022/05/03 16:47:07;;;;;;;;;;;;;;;19.98;45.93;96663.97;4245816;27;5744;-73
2022/05/03 16:49:10;;;;;;;;;;;;;;;19.97;46.03;96664.22;4243933;27;5727;-73
2022/05/03 16:51:13;;;;;;;;;;;;;;;19.90;45.88;96660.94;4244743;27;5792;-73
2022/05/03 16:53:14;;;;;;;;;;;;;;;19.87;45.92;96666.81;4237890;27;5713;-74
2022/05/03 16:55:16;;;;;;;;;;;;;;;19.85;45.82;96668.94;4244926;27;5879;-73
2022/05/03 16:57:19;;;;;;;;;;;;;;;19.80;45.70;96655.47;4246339;27;5905;-72
2022/05/03 16:59:21;;;;;;;;;;;;;;;19.76;45.79;96664.03;4246057;27;5709;-73
2022/05/03 17:01:25;;;;;;;;;;;;;;;19.77;45.61;96662.97;4239694;27;5894;-73
2022/05/03 17:03:26;;;;;;;;;;;;;;;19.78;45.54;96664.59;4239841;27;5749;-73
2022/05/03 17:05:28;;;;;;;;;;;;;;;19.81;45.51;96667.81;4245066;27;5743;-74
2022/05/03 17:07:30;;;;;;;;;;;;;;;19.80;45.64;96667.00;4246387;27;5857;-73
2022/05/03 17:09:31;;;;;;;;;;;;;;;19.78;45.30;96669.94;4246410;27;5728;-73
2022/05/03 17:11:37;;;;;;;;;;;;;;;19.77;45.43;96662.16;4252958;27;5727;-72
2022/05/03 17:13:39;;;;;;;;;;;;;;;19.75;45.27;96667.78;4246105;27;5754;-73
2022/05/03 17:15:41;;;;;;;;;;;;;;;19.73;45.27;96666.44;4238306;27;5763;-73
2022/05/03 17:17:43;;;;;;;;;;;;;;;19.75;45.17;96675.81;4232742;27;5755;-73
2022/05/03 17:19:45;;;;;;;;;;;;;;;19.75;44.99;96670.47;4241876;27;5724;-74
2022/05/03 17:21:47;;;;;;;;;;;;;;;19.77;45.13;96672.88;4242007;27;5731;-74
2022/05/03 17:23:49;;;;;;;;;;;;;;;19.72;44.92;96681.72;4244206;27;5700;-74
2022/05/03 17:25:50;;;;;;;;;;;;;;;19.70;45.15;96673.09;4237734;27;5847;-74
2022/05/03 17:27:52;;;;;;;;;;;;;;;19.71;45.00;96673.91;4236595;27;5697;-73
2022/05/03 17:29:54;;;;;;;;;;;;;;;19.71;44.99;96680.09;4234350;27;5868;-73